Time;durP1;ratioP1;P1;durP2;ratioP2;P2;SDS_P1;SDS_P2;PMS_P1;PMS_P2;Temp;Humidity;BMP_temperature;BMP_pressure;BME280_temperature;BME280_humidity;BME280_pressure;Samples;Min_cycle;Max_cycle;Signal;HPM_P1;HPM_P2
2022/08/17 00:00:16;;;;;;;;;;;19.10;99.90;;;;;;5077110;28;19959;-65
2022/08/17 00:03:01;;;;;;;;;;;19.10;99.90;;;;;;5065148;28;19924;-66
2022/08/17 00:05:27;;;;;;;;;;;18.90;99.90;;;;;;5064908;28;19942;-66
2022/08/17 00:07:53;;;;;;;;;;;18.80;99.90;;;;;;5069110;28;19916;-67
2022/08/17 00:10:20;;;;;;;;;;;18.80;99.90;;;;;;5070656;28;19953;-67
2022/08/17 00:12:46;;;;;;;;;;;18.90;99.90;;;;;;5070035;28;19912;-66
2022/08/17 00:15:12;;;;;;;;;;;18.90;99.90;;;;;;5070791;28;19920;-65
2022/08/17 00:17:40;;;;;;;;;;;18.90;99.90;;;;;;5074483;28;19947;-65
2022/08/17 00:20:06;;;;;;;;;;;19.00;99.90;;;;;;5076056;28;19912;-65
2022/08/17 00:22:32;;;;;;;;;;;19.00;99.90;;;;;;5071824;28;19945;-66
2022/08/17 00:24:57;;;;;;;;;;;19.00;99.90;;;;;;5075145;28;20020;-67
2022/08/17 00:27:23;;;;;;;;;;;19.10;99.90;;;;;;5068639;28;19920;-65
2022/08/17 00:29:48;;;;;;;;;;;19.10;99.90;;;;;;5053116;28;19913;-66
2022/08/17 00:32:14;;;;;;;;;;;19.00;99.90;;;;;;5056528;28;19912;-66
2022/08/17 00:34:40;;;;;;;;;;;18.90;99.90;;;;;;5072537;28;19962;-66
2022/08/17 00:37:05;;;;;;;;;;;18.90;99.90;;;;;;5078890;28;19920;-66
2022/08/17 00:39:31;;;;;;;;;;;19.00;99.90;;;;;;5075291;28;19959;-66
2022/08/17 00:41:56;;;;;;;;;;;19.00;99.90;;;;;;5077410;28;19924;-67
2022/08/17 00:44:22;;;;;;;;;;;19.10;99.90;;;;;;5075540;28;20641;-66
2022/08/17 00:46:47;;;;;;;;;;;19.10;99.90;;;;;;5074227;28;20277;-67
2022/08/17 00:49:15;;;;;;;;;;;19.00;99.90;;;;;;5081463;28;19916;-67
2022/08/17 00:51:52;;;;;;;;;;;18.90;99.90;;;;;;5082672;28;19912;-65
2022/08/17 00:54:31;;;;;;;;;;;18.80;99.90;;;;;;5076828;28;19920;-67
2022/08/17 00:57:06;;;;;;;;;;;18.90;99.90;;;;;;5068069;28;20416;-67
2022/08/17 00:59:39;;;;;;;;;;;18.80;99.90;;;;;;5079784;28;19948;-66
2022/08/17 01:02:06;;;;;;;;;;;18.80;99.90;;;;;;5062336;28;20391;-66
2022/08/17 01:04:32;;;;;;;;;;;18.70;99.90;;;;;;5079492;28;20308;-66
2022/08/17 01:06:59;;;;;;;;;;;18.80;99.90;;;;;;5063722;28;19920;-66
2022/08/17 01:09:25;;;;;;;;;;;19.00;99.90;;;;;;5072996;28;19966;-65
2022/08/17 01:11:51;;;;;;;;;;;19.00;99.90;;;;;;5070881;28;20017;-67
2022/08/17 01:14:19;;;;;;;;;;;19.00;99.90;;;;;;5081268;28;19935;-66
2022/08/17 01:16:47;;;;;;;;;;;18.90;99.90;;;;;;5078080;28;19927;-65
2022/08/17 01:19:15;;;;;;;;;;;18.90;99.90;;;;;;5078586;28;19924;-65
2022/08/17 01:21:53;;;;;;;;;;;18.80;99.90;;;;;;5079645;28;20015;-66
2022/08/17 01:24:19;;;;;;;;;;;18.90;99.90;;;;;;5065803;28;20298;-66
2022/08/17 01:26:45;;;;;;;;;;;19.00;99.90;;;;;;5080925;28;19919;-64
2022/08/17 01:29:11;;;;;;;;;;;19.10;99.90;;;;;;5078661;28;20317;-67
2022/08/17 01:31:38;;;;;;;;;;;19.20;99.90;;;;;;5078972;28;20077;-66
2022/08/17 01:34:08;;;;;;;;;;;19.20;99.90;;;;;;5083602;28;19977;-65
2022/08/17 01:36:35;;;;;;;;;;;19.40;99.90;;;;;;5079530;28;19964;-66
2022/08/17 01:39:01;;;;;;;;;;;19.20;99.90;;;;;;5077185;28;19912;-65
2022/08/17 01:41:27;;;;;;;;;;;19.20;99.90;;;;;;5077791;28;20444;-66
2022/08/17 01:43:54;;;;;;;;;;;19.10;99.90;;;;;;5085814;28;19916;-66
2022/08/17 01:46:21;;;;;;;;;;;19.10;99.90;;;;;;5077178;28;20013;-66
2022/08/17 01:48:47;;;;;;;;;;;19.10;99.90;;;;;;5076065;28;19944;-66
2022/08/17 01:51:14;;;;;;;;;;;19.10;99.90;;;;;;5063786;28;19947;-66
2022/08/17 01:53:41;;;;;;;;;;;19.10;99.90;;;;;;5059029;28;19924;-65
2022/08/17 01:56:14;;;;;;;;;;;19.00;99.90;;;;;;5056905;28;20039;-66
2022/08/17 01:58:40;;;;;;;;;;;19.00;99.90;;;;;;5074904;28;19919;-66
2022/08/17 02:01:06;;;;;;;;;;;19.10;99.90;;;;;;5078517;28;19920;-66
2022/08/17 02:03:33;;;;;;;;;;;19.10;99.90;;;;;;5071457;28;20378;-65
2022/08/17 02:05:59;;;;;;;;;;;19.00;99.90;;;;;;5073453;28;19912;-65
2022/08/17 02:08:24;;;;;;;;;;;18.90;99.90;;;;;;5071757;28;20829;-65
2022/08/17 02:10:50;;;;;;;;;;;18.90;99.90;;;;;;5080332;28;19912;-65
2022/08/17 02:13:16;;;;;;;;;;;18.90;99.90;;;;;;5068067;28;19912;-65
2022/08/17 02:15:42;;;;;;;;;;;18.90;99.90;;;;;;5075453;28;20278;-65
2022/08/17 02:18:09;;;;;;;;;;;18.90;99.90;;;;;;5075546;28;19920;-65
2022/08/17 02:20:37;;;;;;;;;;;18.80;99.90;;;;;;5078105;28;19919;-66
2022/08/17 02:23:03;;;;;;;;;;;18.80;99.90;;;;;;5080854;28;19993;-65
2022/08/17 02:25:31;;;;;;;;;;;18.80;99.90;;;;;;5056573;28;19921;-65
2022/08/17 02:27:56;;;;;;;;;;;18.90;99.90;;;;;;5055309;28;19920;-65
2022/08/17 02:30:23;;;;;;;;;;;18.80;99.90;;;;;;5058157;28;19926;-64
2022/08/17 02:32:51;;;;;;;;;;;18.80;99.90;;;;;;5055922;28;20359;-66
2022/08/17 02:35:16;;;;;;;;;;;18.80;99.90;;;;;;5059547;28;20031;-66
2022/08/17 02:37:42;;;;;;;;;;;18.70;99.90;;;;;;5060607;28;19971;-65
2022/08/17 02:40:08;;;;;;;;;;;18.70;99.90;;;;;;5056716;28;19916;-66
2022/08/17 02:42:35;;;;;;;;;;;18.80;99.90;;;;;;5062247;28;19921;-66
2022/08/17 02:45:02;;;;;;;;;;;18.70;99.90;;;;;;5061381;28;19912;-65
2022/08/17 02:47:28;;;;;;;;;;;18.80;99.90;;;;;;5059419;28;19916;-67
2022/08/17 02:49:54;;;;;;;;;;;18.80;99.90;;;;;;5055594;28;20628;-65
2022/08/17 02:52:20;;;;;;;;;;;18.70;99.90;;;;;;5058574;28;20350;-65
2022/08/17 02:54:45;;;;;;;;;;;18.90;99.90;;;;;;5053747;28;19939;-66
2022/08/17 02:57:11;;;;;;;;;;;18.90;99.90;;;;;;5053301;28;20315;-66
2022/08/17 02:59:37;;;;;;;;;;;19.00;99.90;;;;;;5057251;28;19913;-65
2022/08/17 03:02:04;;;;;;;;;;;18.90;99.90;;;;;;5055238;28;20038;-65
2022/08/17 03:04:30;;;;;;;;;;;18.90;99.90;;;;;;5058940;28;19978;-66
2022/08/17 03:06:56;;;;;;;;;;;19.00;99.90;;;;;;5050702;28;19917;-65
2022/08/17 03:09:21;;;;;;;;;;;19.00;99.90;;;;;;5054737;28;19920;-66
2022/08/17 03:11:50;;;;;;;;;;;19.00;99.90;;;;;;5049387;28;19912;-65
2022/08/17 03:14:16;;;;;;;;;;;19.10;99.90;;;;;;5047356;28;19916;-66
2022/08/17 03:16:42;;;;;;;;;;;19.00;99.90;;;;;;5048892;28;19927;-67
2022/08/17 03:19:08;;;;;;;;;;;18.90;99.90;;;;;;5048910;28;20377;-66
2022/08/17 03:21:33;;;;;;;;;;;18.80;99.90;;;;;;5056280;28;20269;-66
2022/08/17 03:23:59;;;;;;;;;;;18.80;99.90;;;;;;5050311;28;19962;-66
2022/08/17 03:26:24;;;;;;;;;;;18.90;99.90;;;;;;5066518;28;19928;-66
2022/08/17 03:28:50;;;;;;;;;;;18.80;99.90;;;;;;5074686;28;19916;-66
2022/08/17 03:31:17;;;;;;;;;;;18.80;99.90;;;;;;5075208;28;20443;-68
2022/08/17 03:33:42;;;;;;;;;;;18.80;99.90;;;;;;5073988;28;19916;-66
2022/08/17 03:36:08;;;;;;;;;;;18.70;99.90;;;;;;5072469;28;20388;-66
2022/08/17 03:38:34;;;;;;;;;;;18.80;99.90;;;;;;5070111;28;19913;-67
2022/08/17 03:40:59;;;;;;;;;;;18.80;99.90;;;;;;5079294;28;19923;-66
2022/08/17 03:43:26;;;;;;;;;;;18.90;99.90;;;;;;5058228;28;19912;-67
2022/08/17 03:57:01;;;;;;;;;;;18.90;99.90;;;;;;5070826;28;20057;-66
2022/08/17 03:59:27;;;;;;;;;;;18.90;99.90;;;;;;5066606;28;19920;-65
2022/08/17 04:01:53;;;;;;;;;;;18.90;99.90;;;;;;5073270;28;19963;-66
2022/08/17 04:04:19;;;;;;;;;;;18.90;99.90;;;;;;5074061;28;19920;-67
2022/08/17 04:06:45;;;;;;;;;;;19.00;99.90;;;;;;5074461;28;20385;-66
2022/08/17 04:09:11;;;;;;;;;;;18.90;99.90;;;;;;5069980;28;19919;-66
2022/08/17 04:11:37;;;;;;;;;;;18.90;99.90;;;;;;5058504;28;19912;-65
2022/08/17 04:14:03;;;;;;;;;;;18.90;99.90;;;;;;5077059;28;19916;-66
2022/08/17 04:16:29;;;;;;;;;;;18.80;99.90;;;;;;5077975;28;19949;-66
2022/08/17 04:18:55;;;;;;;;;;;18.90;99.90;;;;;;5074072;28;19962;-66
2022/08/17 04:21:21;;;;;;;;;;;18.90;99.90;;;;;;5074859;28;20012;-67
2022/08/17 04:23:46;;;;;;;;;;;18.90;99.90;;;;;;5073468;28;19912;-66
2022/08/17 04:26:13;;;;;;;;;;;18.90;99.90;;;;;;5074045;28;19978;-65
2022/08/17 04:28:42;;;;;;;;;;;18.80;99.90;;;;;;5071883;28;19999;-65
2022/08/17 04:31:08;;;;;;;;;;;18.80;99.90;;;;;;5070141;28;19912;-66
2022/08/17 04:33:37;;;;;;;;;;;18.80;99.90;;;;;;5070549;28;20230;-66
2022/08/17 04:36:04;;;;;;;;;;;18.80;99.90;;;;;;5072625;28;19951;-66
2022/08/17 04:38:31;;;;;;;;;;;18.70;99.90;;;;;;5065970;28;20403;-67
2022/08/17 04:43:42;;;;;;;;;;;18.80;99.90;;;;;;5075983;28;20395;-65
2022/08/17 04:46:15;;;;;;;;;;;18.80;99.90;;;;;;5077667;28;19962;-65
2022/08/17 04:48:42;;;;;;;;;;;18.90;99.90;;;;;;5073904;28;19912;-66
2022/08/17 04:51:13;;;;;;;;;;;18.80;99.90;;;;;;5073963;28;19922;-66
2022/08/17 04:53:40;;;;;;;;;;;18.80;99.90;;;;;;5075843;28;19912;-66
2022/08/17 04:56:06;;;;;;;;;;;18.70;99.90;;;;;;5078752;28;19927;-67
2022/08/17 04:58:31;;;;;;;;;;;18.70;99.90;;;;;;5061846;28;19921;-66
2022/08/17 05:00:57;;;;;;;;;;;18.70;99.90;;;;;;5071936;28;19912;-66
2022/08/17 05:03:22;;;;;;;;;;;18.80;99.90;;;;;;5074681;28;19923;-66
2022/08/17 05:05:48;;;;;;;;;;;18.90;99.90;;;;;;5078518;28;19947;-66
2022/08/17 05:08:15;;;;;;;;;;;18.80;99.90;;;;;;5083137;28;20484;-67
2022/08/17 05:10:42;;;;;;;;;;;18.90;99.90;;;;;;5084051;28;20010;-66
2022/08/17 05:13:09;;;;;;;;;;;19.00;99.90;;;;;;5081296;28;20011;-66
2022/08/17 05:15:36;;;;;;;;;;;19.00;99.90;;;;;;5078674;28;19928;-66
2022/08/17 05:18:03;;;;;;;;;;;19.00;99.90;;;;;;5073217;28;20274;-66
2022/08/17 05:20:28;;;;;;;;;;;19.00;99.90;;;;;;5074429;28;20348;-66
2022/08/17 05:22:55;;;;;;;;;;;19.10;99.90;;;;;;5081044;28;20017;-66
2022/08/17 05:25:22;;;;;;;;;;;19.00;99.90;;;;;;5079515;28;19995;-66
2022/08/17 05:27:47;;;;;;;;;;;19.00;99.90;;;;;;5076621;28;20051;-66
2022/08/17 05:30:14;;;;;;;;;;;19.00;99.90;;;;;;5074128;28;20479;-65
2022/08/17 05:32:48;;;;;;;;;;;19.10;99.90;;;;;;5082610;28;20046;-65
2022/08/17 05:35:14;;;;;;;;;;;19.00;99.90;;;;;;5073753;28;19921;-66
2022/08/17 05:37:40;;;;;;;;;;;19.10;99.90;;;;;;5071242;28;19924;-67
2022/08/17 05:40:06;;;;;;;;;;;19.10;99.90;;;;;;5074043;28;19912;-67
2022/08/17 05:42:31;;;;;;;;;;;19.00;99.90;;;;;;5072973;28;19928;-63
2022/08/17 05:44:57;;;;;;;;;;;19.00;99.90;;;;;;5073109;28;19965;-65
2022/08/17 05:47:24;;;;;;;;;;;18.90;99.90;;;;;;5074066;28;19923;-65
2022/08/17 05:49:49;;;;;;;;;;;18.90;99.90;;;;;;5073761;28;19916;-65
2022/08/17 05:52:15;;;;;;;;;;;18.90;99.90;;;;;;5073729;28;19920;-66
2022/08/17 05:55:02;;;;;;;;;;;18.90;99.90;;;;;;5075037;28;20236;-66
2022/08/17 05:57:47;;;;;;;;;;;18.90;99.90;;;;;;5077294;28;20277;-65
2022/08/17 06:00:13;;;;;;;;;;;19.00;99.90;;;;;;5074520;28;20010;-66
2022/08/17 06:02:43;;;;;;;;;;;19.20;99.90;;;;;;5073012;28;19926;-67
2022/08/17 06:05:08;;;;;;;;;;;19.30;99.90;;;;;;5055305;28;19923;-66
2022/08/17 06:07:44;;;;;;;;;;;19.30;99.90;;;;;;5071049;28;20432;-66
2022/08/17 06:10:21;;;;;;;;;;;19.30;99.90;;;;;;5076312;28;19913;-66
2022/08/17 06:13:05;;;;;;;;;;;19.30;99.90;;;;;;5074678;28;19931;-65
2022/08/17 06:15:31;;;;;;;;;;;19.20;99.90;;;;;;5082354;28;20273;-66
2022/08/17 06:18:02;;;;;;;;;;;19.20;99.90;;;;;;5079375;28;19943;-66
2022/08/17 06:20:48;;;;;;;;;;;19.20;99.90;;;;;;5077475;28;20339;-66
2022/08/17 06:23:18;;;;;;;;;;;19.20;99.90;;;;;;5058165;28;20391;-65
2022/08/17 06:25:47;;;;;;;;;;;19.30;99.90;;;;;;5072154;28;20640;-66
2022/08/17 06:28:15;;;;;;;;;;;19.40;99.90;;;;;;5069320;28;19928;-66
2022/08/17 06:30:48;;;;;;;;;;;19.40;99.90;;;;;;5072772;28;19969;-67
2022/08/17 06:33:22;;;;;;;;;;;19.50;99.90;;;;;;5064822;28;19912;-66
2022/08/17 06:36:01;;;;;;;;;;;19.70;99.90;;;;;;5065425;28;19916;-66
2022/08/17 06:38:33;;;;;;;;;;;19.60;99.90;;;;;;5072376;28;20005;-66
2022/08/17 06:41:05;;;;;;;;;;;19.70;99.90;;;;;;5073135;28;19921;-66
2022/08/17 06:43:55;;;;;;;;;;;19.60;99.90;;;;;;5079976;28;19987;-66
2022/08/17 06:46:39;;;;;;;;;;;19.80;99.90;;;;;;5074709;28;19916;-66
2022/08/17 06:49:12;;;;;;;;;;;20.00;99.90;;;;;;5073999;28;20506;-66
2022/08/17 06:51:47;;;;;;;;;;;20.00;99.90;;;;;;5074239;28;19913;-66
2022/08/17 06:54:13;;;;;;;;;;;19.90;99.90;;;;;;5078908;28;19916;-66
2022/08/17 06:56:41;;;;;;;;;;;19.90;99.90;;;;;;5076557;28;20034;-65
2022/08/17 06:59:09;;;;;;;;;;;19.90;99.90;;;;;;5070532;28;19916;-66
2022/08/17 07:01:37;;;;;;;;;;;19.90;99.90;;;;;;5057805;28;19966;-66
2022/08/17 07:04:10;;;;;;;;;;;19.90;99.90;;;;;;5082231;28;19934;-67
2022/08/17 07:06:39;;;;;;;;;;;20.00;99.90;;;;;;5065435;28;20287;-66
2022/08/17 07:09:07;;;;;;;;;;;20.00;99.90;;;;;;5083480;28;20282;-67
2022/08/17 07:11:49;;;;;;;;;;;20.20;99.90;;;;;;5075938;28;19958;-67
2022/08/17 07:14:36;;;;;;;;;;;20.20;99.90;;;;;;5082296;28;20378;-67
2022/08/17 07:17:06;;;;;;;;;;;20.30;99.90;;;;;;5071964;28;19990;-67
2022/08/17 07:19:33;;;;;;;;;;;20.30;99.90;;;;;;5076673;28;20401;-65
2022/08/17 07:22:12;;;;;;;;;;;20.60;99.90;;;;;;5076517;28;19924;-66
2022/08/17 07:24:46;;;;;;;;;;;20.40;99.90;;;;;;5077868;28;20308;-66
2022/08/17 07:27:17;;;;;;;;;;;20.40;99.90;;;;;;5074057;28;20015;-66
2022/08/17 07:29:45;;;;;;;;;;;20.40;99.90;;;;;;5076550;28;19920;-67
2022/08/17 07:32:13;;;;;;;;;;;20.40;99.90;;;;;;5074440;28;19955;-65
2022/08/17 07:34:57;;;;;;;;;;;20.20;99.90;;;;;;5076797;28;19916;-66
2022/08/17 07:37:22;;;;;;;;;;;20.30;99.90;;;;;;5073826;28;19912;-67
2022/08/17 07:39:48;;;;;;;;;;;20.40;99.90;;;;;;5072930;28;19916;-67
2022/08/17 07:42:13;;;;;;;;;;;20.50;99.90;;;;;;5071721;28;19924;-67
2022/08/17 07:44:53;;;;;;;;;;;20.50;99.90;;;;;;5076185;28;19920;-66
2022/08/17 07:50:22;;;;;;;;;;;20.40;99.90;;;;;;5056231;28;19924;-67
2022/08/17 07:52:48;;;;;;;;;;;20.40;99.90;;;;;;5079420;28;19920;-67
2022/08/17 07:55:28;;;;;;;;;;;20.40;99.90;;;;;;5075457;28;20301;-67
2022/08/17 07:57:56;;;;;;;;;;;20.30;99.90;;;;;;5074709;28;19921;-69
2022/08/17 08:00:23;;;;;;;;;;;20.20;99.90;;;;;;5054773;28;20009;-65
2022/08/17 08:03:21;;;;;;;;;;;20.20;99.90;;;;;;5078193;28;19921;-72
2022/08/17 08:05:52;;;;;;;;;;;20.20;99.90;;;;;;5033807;28;20484;-66
2022/08/17 08:08:18;;;;;;;;;;;20.10;99.90;;;;;;5068662;28;19924;-69
2022/08/17 08:10:55;;;;;;;;;;;20.20;99.90;;;;;;5078319;28;19912;-70
2022/08/17 08:13:22;;;;;;;;;;;20.20;99.90;;;;;;5067872;28;19920;-66
2022/08/17 08:15:50;;;;;;;;;;;20.30;99.90;;;;;;5071445;28;19919;-66
2022/08/17 08:18:28;;;;;;;;;;;20.50;99.90;;;;;;5076754;28;19912;-66
2022/08/17 08:21:17;;;;;;;;;;;20.40;99.90;;;;;;5077856;28;19913;-67
2022/08/17 08:24:02;;;;;;;;;;;20.50;99.90;;;;;;5064954;28;19924;-67
2022/08/17 08:26:37;;;;;;;;;;;20.60;99.90;;;;;;5055376;28;19912;-66
2022/08/17 08:29:17;;;;;;;;;;;20.60;99.90;;;;;;5077475;28;19996;-66
2022/08/17 08:31:51;;;;;;;;;;;20.50;99.90;;;;;;5076239;28;20334;-67
2022/08/17 08:34:17;;;;;;;;;;;20.50;99.90;;;;;;5074443;28;20069;-68
2022/08/17 08:37:12;;;;;;;;;;;20.50;99.90;;;;;;5075888;28;20031;-67
2022/08/17 08:39:56;;;;;;;;;;;20.40;99.90;;;;;;5038539;28;20290;-67
2022/08/17 08:42:40;;;;;;;;;;;20.20;99.90;;;;;;5076919;28;19931;-67
2022/08/17 08:45:06;;;;;;;;;;;20.30;99.90;;;;;;5073118;28;19916;-66
2022/08/17 08:47:31;;;;;;;;;;;20.30;99.90;;;;;;5076017;28;19958;-67
2022/08/17 08:50:15;;;;;;;;;;;20.20;99.90;;;;;;5073663;28;20302;-68
2022/08/17 08:52:43;;;;;;;;;;;20.20;99.90;;;;;;5092203;28;19912;-68
2022/08/17 08:55:12;;;;;;;;;;;20.40;99.90;;;;;;5078132;28;19916;-66
2022/08/17 08:58:07;;;;;;;;;;;20.30;99.90;;;;;;5086701;28;20393;-66
2022/08/17 09:00:34;;;;;;;;;;;20.40;99.90;;;;;;5039357;28;20737;-68
2022/08/17 09:03:18;;;;;;;;;;;20.60;99.90;;;;;;5078786;28;20385;-67
2022/08/17 09:05:52;;;;;;;;;;;20.70;99.90;;;;;;5084195;28;19930;-67
2022/08/17 09:08:31;;;;;;;;;;;20.80;99.90;;;;;;5090484;28;19917;-66
2022/08/17 09:11:03;;;;;;;;;;;20.90;99.90;;;;;;5068428;28;19939;-67
2022/08/17 09:13:31;;;;;;;;;;;21.00;99.90;;;;;;5090860;28;19912;-66
2022/08/17 09:16:03;;;;;;;;;;;21.00;99.90;;;;;;5086955;28;20351;-67
2022/08/17 09:18:32;;;;;;;;;;;21.00;99.90;;;;;;5088876;28;20003;-67
2022/08/17 09:21:09;;;;;;;;;;;20.90;99.90;;;;;;5093091;28;20376;-67
2022/08/17 09:23:43;;;;;;;;;;;20.90;99.90;;;;;;5087924;28;19924;-68
2022/08/17 09:26:11;;;;;;;;;;;21.00;99.90;;;;;;5076952;28;19921;-66
2022/08/17 09:28:37;;;;;;;;;;;21.00;99.90;;;;;;5088681;28;20065;-66
2022/08/17 09:31:08;;;;;;;;;;;20.90;99.90;;;;;;5092947;28;19922;-66
2022/08/17 09:33:35;;;;;;;;;;;21.00;99.90;;;;;;5091685;28;19912;-66
2022/08/17 09:36:04;;;;;;;;;;;20.90;99.90;;;;;;5070160;28;19955;-66
2022/08/17 09:38:29;;;;;;;;;;;20.90;99.90;;;;;;5097588;28;19947;-67
2022/08/17 09:40:58;;;;;;;;;;;20.80;99.90;;;;;;5100228;28;19915;-67
2022/08/17 09:43:35;;;;;;;;;;;20.90;99.90;;;;;;5097516;28;19969;-66
2022/08/17 09:46:10;;;;;;;;;;;20.70;99.90;;;;;;5095423;28;19912;-67
2022/08/17 09:48:56;;;;;;;;;;;20.70;99.90;;;;;;5098077;28;19912;-67
2022/08/17 09:51:33;;;;;;;;;;;20.80;99.90;;;;;;5095218;28;19969;-66
2022/08/17 09:53:59;;;;;;;;;;;20.90;99.90;;;;;;5078326;28;19931;-67
2022/08/17 09:56:25;;;;;;;;;;;20.90;99.90;;;;;;5100334;28;19912;-67
2022/08/17 09:58:59;;;;;;;;;;;20.90;99.90;;;;;;5093276;28;19920;-67
2022/08/17 10:01:37;;;;;;;;;;;21.10;99.90;;;;;;5093299;28;19923;-67
2022/08/17 10:04:31;;;;;;;;;;;21.10;99.90;;;;;;5077935;28;19916;-68
2022/08/17 10:07:05;;;;;;;;;;;21.30;99.90;;;;;;5068853;28;20369;-67
2022/08/17 10:09:54;;;;;;;;;;;21.30;99.90;;;;;;5088562;28;19916;-67
2022/08/17 10:12:28;;;;;;;;;;;21.30;99.90;;;;;;5085407;28;19911;-67
2022/08/17 10:15:16;;;;;;;;;;;21.60;99.90;;;;;;5086045;28;19924;-66
2022/08/17 10:18:03;;;;;;;;;;;21.70;99.90;;;;;;5085913;28;19913;-66
2022/08/17 10:20:32;;;;;;;;;;;21.80;99.90;;;;;;5090244;28;19927;-67
2022/08/17 10:28:35;;;;;;;;;;;21.80;99.90;;;;;;5075137;28;20711;-67
2022/08/17 10:31:01;;;;;;;;;;;21.90;99.90;;;;;;5074522;28;20300;-68
2022/08/17 10:33:34;;;;;;;;;;;22.00;99.90;;;;;;5077322;28;19912;-69
2022/08/17 10:36:11;;;;;;;;;;;22.00;99.90;;;;;;5074681;28;19920;-67
2022/08/17 10:38:45;;;;;;;;;;;22.10;99.90;;;;;;5085174;28;19920;-67
2022/08/17 10:41:29;;;;;;;;;;;22.30;99.90;;;;;;5079591;28;19916;-68
2022/08/17 10:44:03;;;;;;;;;;;22.30;99.90;;;;;;5093077;28;20413;-66
2022/08/17 10:46:45;;;;;;;;;;;22.20;99.90;;;;;;5080743;28;19943;-66
2022/08/17 10:49:22;;;;;;;;;;;22.10;99.90;;;;;;5088751;28;20011;-67
2022/08/17 10:51:50;;;;;;;;;;;21.90;99.90;;;;;;5061670;28;19912;-66
2022/08/17 10:54:35;;;;;;;;;;;22.00;99.90;;;;;;5083924;28;19923;-67
2022/08/17 10:57:01;;;;;;;;;;;21.90;99.90;;;;;;5083320;28;19985;-66
2022/08/17 10:59:47;;;;;;;;;;;21.90;99.90;;;;;;5074573;28;20362;-67
2022/08/17 11:02:25;;;;;;;;;;;22.00;99.90;;;;;;5071524;28;19939;-68
2022/08/17 11:04:59;;;;;;;;;;;22.10;99.90;;;;;;5077908;28;19989;-68
2022/08/17 11:07:31;;;;;;;;;;;22.20;99.90;;;;;;5077408;28;19912;-68
2022/08/17 11:10:15;;;;;;;;;;;22.20;99.90;;;;;;5078483;28;19916;-69
2022/08/17 11:13:00;;;;;;;;;;;22.30;99.90;;;;;;5075960;28;19947;-67
2022/08/17 11:15:44;;;;;;;;;;;22.50;99.90;;;;;;5076854;28;19913;-68
2022/08/17 11:18:24;;;;;;;;;;;22.50;99.90;;;;;;5075624;28;19972;-69
2022/08/17 11:21:05;;;;;;;;;;;22.50;99.90;;;;;;5070315;28;20437;-67
2022/08/17 11:23:49;;;;;;;;;;;22.60;99.90;;;;;;5081009;28;19924;-68
2022/08/17 11:26:24;;;;;;;;;;;22.80;99.90;;;;;;5078343;28;19912;-67
2022/08/17 11:28:53;;;;;;;;;;;22.70;99.90;;;;;;5076667;28;20385;-67
2022/08/17 11:31:24;;;;;;;;;;;22.60;99.90;;;;;;5075703;28;19920;-67
2022/08/17 11:33:53;;;;;;;;;;;22.40;99.90;;;;;;5077104;28;19916;-66
2022/08/17 11:36:44;;;;;;;;;;;22.20;99.90;;;;;;5077327;28;20029;-66
2022/08/17 11:39:24;;;;;;;;;;;21.90;99.90;;;;;;5077367;28;19916;-66
2022/08/17 11:42:05;;;;;;;;;;;21.80;99.90;;;;;;5086220;28;20265;-69
2022/08/17 11:44:31;;;;;;;;;;;21.70;99.90;;;;;;5083538;28;20038;-68
2022/08/17 11:53:02;;;;;;;;;;;21.60;99.90;;;;;;5089050;28;19938;-68
2022/08/17 11:55:33;;;;;;;;;;;21.40;99.90;;;;;;5089600;28;20056;-68
2022/08/17 11:58:05;;;;;;;;;;;21.20;99.90;;;;;;5092098;28;20236;-68
2022/08/17 12:00:48;;;;;;;;;;;21.10;99.90;;;;;;5068420;28;20341;-68
2022/08/17 12:03:23;;;;;;;;;;;20.90;99.90;;;;;;5077175;28;19972;-68
2022/08/17 12:05:52;;;;;;;;;;;20.90;99.90;;;;;;5079963;28;20028;-68
2022/08/17 12:08:19;;;;;;;;;;;20.90;99.90;;;;;;5065080;28;19916;-68
2022/08/17 12:11:05;;;;;;;;;;;21.00;99.90;;;;;;5081348;28;19916;-68
2022/08/17 12:13:34;;;;;;;;;;;21.30;99.90;;;;;;5079468;28;20358;-68
2022/08/17 12:16:00;;;;;;;;;;;21.60;99.90;;;;;;5070410;28;19934;-70
2022/08/17 12:18:29;;;;;;;;;;;21.80;99.90;;;;;;5075324;28;19988;-66
2022/08/17 12:21:14;;;;;;;;;;;21.90;99.90;;;;;;5065708;28;20070;-67
2022/08/17 12:23:55;;;;;;;;;;;21.90;99.90;;;;;;5061970;28;20339;-66
2022/08/17 12:26:23;;;;;;;;;;;22.10;99.90;;;;;;5076764;28;19944;-68
2022/08/17 12:28:52;;;;;;;;;;;22.30;99.90;;;;;;5064032;28;20047;-69
2022/08/17 12:31:29;;;;;;;;;;;22.30;99.90;;;;;;5079798;28;19958;-68
2022/08/17 12:33:55;;;;;;;;;;;22.30;99.90;;;;;;5069197;28;19957;-66
2022/08/17 12:36:23;;;;;;;;;;;22.40;99.90;;;;;;5077148;28;19912;-67
2022/08/17 12:38:58;;;;;;;;;;;22.50;99.90;;;;;;5065426;28;19920;-68
2022/08/17 12:41:35;;;;;;;;;;;22.60;99.90;;;;;;5070940;28;20426;-68
2022/08/17 12:44:04;;;;;;;;;;;22.60;99.90;;;;;;5062991;28;19998;-67
2022/08/17 12:46:32;;;;;;;;;;;22.60;99.90;;;;;;5073622;28;20274;-68
2022/08/17 12:49:12;;;;;;;;;;;22.60;99.90;;;;;;5075390;28;19924;-69
2022/08/17 12:51:41;;;;;;;;;;;22.60;99.90;;;;;;5078108;28;19920;-67
2022/08/17 12:54:19;;;;;;;;;;;22.40;99.90;;;;;;5070038;28;19912;-67
2022/08/17 12:56:45;;;;;;;;;;;22.30;99.90;;;;;;5064658;28;20055;-67
2022/08/17 12:59:10;;;;;;;;;;;22.00;99.90;;;;;;5068501;28;20373;-67
2022/08/17 13:01:40;;;;;;;;;;;22.00;99.90;;;;;;5058108;28;22296;-67
2022/08/17 13:04:06;;;;;;;;;;;22.10;99.90;;;;;;5072586;28;19912;-68
2022/08/17 13:06:33;;;;;;;;;;;22.30;99.90;;;;;;5081387;28;19916;-66
2022/08/17 13:09:12;;;;;;;;;;;22.10;99.90;;;;;;5077044;28;19966;-67
2022/08/17 13:11:53;;;;;;;;;;;22.00;99.90;;;;;;5072876;28;20408;-67
2022/08/17 13:14:19;;;;;;;;;;;21.90;99.90;;;;;;5082807;28;19923;-66
2022/08/17 13:16:50;;;;;;;;;;;21.80;99.90;;;;;;5081533;28;19912;-67
2022/08/17 13:19:20;;;;;;;;;;;22.00;99.90;;;;;;5064473;28;19924;-66
2022/08/17 13:21:53;;;;;;;;;;;22.20;99.90;;;;;;5081840;28;20372;-66
2022/08/17 13:24:21;;;;;;;;;;;22.40;99.90;;;;;;5088870;28;20274;-68
2022/08/17 13:27:02;;;;;;;;;;;22.50;99.90;;;;;;5080568;28;19943;-68
2022/08/17 13:29:28;;;;;;;;;;;22.70;99.90;;;;;;5086884;28;19920;-67
2022/08/17 13:31:57;;;;;;;;;;;22.70;99.90;;;;;;5076809;28;19912;-67
2022/08/17 13:34:25;;;;;;;;;;;22.20;99.90;;;;;;5079850;28;19921;-67
2022/08/17 13:36:52;;;;;;;;;;;22.20;99.90;;;;;;5085369;28;20845;-68
2022/08/17 13:39:19;;;;;;;;;;;22.20;99.90;;;;;;5082188;28;19937;-68
2022/08/17 13:41:45;;;;;;;;;;;22.20;99.90;;;;;;5082936;28;19920;-66
2022/08/17 13:44:29;;;;;;;;;;;22.30;99.90;;;;;;5080058;28;19916;-67
2022/08/17 13:46:59;;;;;;;;;;;22.30;99.90;;;;;;5081224;28;19916;-67
2022/08/17 13:49:26;;;;;;;;;;;22.40;99.90;;;;;;5067879;28;19984;-67
2022/08/17 13:51:52;;;;;;;;;;;22.20;99.90;;;;;;5062501;28;19952;-66
2022/08/17 13:54:31;;;;;;;;;;;22.30;99.90;;;;;;5078819;28;19996;-67
2022/08/17 13:56:58;;;;;;;;;;;22.30;99.90;;;;;;5078938;28;20385;-66
2022/08/17 13:59:28;;;;;;;;;;;22.20;99.90;;;;;;5076810;28;20034;-68
2022/08/17 14:01:54;;;;;;;;;;;22.10;99.90;;;;;;5079275;28;19920;-67
2022/08/17 14:04:28;;;;;;;;;;;22.00;99.90;;;;;;5079963;28;19912;-68
2022/08/17 14:06:53;;;;;;;;;;;21.90;99.90;;;;;;5062690;28;19920;-67
2022/08/17 14:09:20;;;;;;;;;;;22.00;99.90;;;;;;5078527;28;19935;-66
2022/08/17 14:11:46;;;;;;;;;;;22.30;99.90;;;;;;5083396;28;19912;-67
2022/08/17 14:14:12;;;;;;;;;;;22.40;99.90;;;;;;5083249;28;20392;-67
2022/08/17 14:16:41;;;;;;;;;;;22.40;99.90;;;;;;5058166;28;19912;-66
2022/08/17 14:19:08;;;;;;;;;;;22.50;99.90;;;;;;5062079;28;20106;-67
2022/08/17 14:21:35;;;;;;;;;;;22.60;99.90;;;;;;5077021;28;19928;-67
2022/08/17 14:24:01;;;;;;;;;;;22.50;99.90;;;;;;5077769;28;20019;-67
2022/08/17 14:26:26;;;;;;;;;;;22.60;99.90;;;;;;5063600;28;20358;-66
2022/08/17 14:28:52;;;;;;;;;;;22.90;99.90;;;;;;5077405;28;19943;-67
2022/08/17 14:31:19;;;;;;;;;;;23.10;99.90;;;;;;5077972;28;19942;-66
2022/08/17 14:33:45;;;;;;;;;;;23.20;99.90;;;;;;5071716;28;20227;-67
2022/08/17 14:36:11;;;;;;;;;;;23.50;99.90;;;;;;5075289;28;20032;-68
2022/08/17 14:38:36;;;;;;;;;;;23.60;99.90;;;;;;5062375;28;20014;-66
2022/08/17 14:41:03;;;;;;;;;;;23.70;99.90;;;;;;5084360;28;20392;-68
2022/08/17 14:43:31;;;;;;;;;;;23.50;99.90;;;;;;5084810;28;19921;-67
2022/08/17 14:45:57;;;;;;;;;;;23.40;99.90;;;;;;5087145;28;19943;-66
2022/08/17 14:48:22;;;;;;;;;;;23.30;99.90;;;;;;5085275;28;19916;-66
2022/08/17 14:50:48;;;;;;;;;;;23.50;99.90;;;;;;5083859;28;19916;-67
2022/08/17 14:53:14;;;;;;;;;;;23.50;99.90;;;;;;5081310;28;19912;-67
2022/08/17 14:55:40;;;;;;;;;;;23.60;99.90;;;;;;5088554;28;19920;-66
2022/08/17 14:58:07;;;;;;;;;;;23.50;99.90;;;;;;5082342;28;19966;-66
2022/08/17 15:00:33;;;;;;;;;;;23.60;99.90;;;;;;5086591;28;19918;-66
2022/08/17 15:02:59;;;;;;;;;;;23.50;99.90;;;;;;5080518;28;20014;-66